createdAt,value
2015-08-05T00:00:08.723Z,6.94
2015-08-05T00:00:21.114Z,6.88
2015-08-05T00:00:33.504Z,6.93
2015-08-05T00:00:45.879Z,6.9
2015-08-05T00:00:58.256Z,6.82
2015-08-05T00:01:10.631Z,6.91
2015-08-05T00:01:23.006Z,6.91
2015-08-05T00:01:35.381Z,6.91
2015-08-05T00:01:47.756Z,6.85
2015-08-05T00:02:00.150Z,6.93
2015-08-05T00:02:12.525Z,6.88
2015-08-05T00:02:24.916Z,6.86
2015-08-05T00:02:37.291Z,6.9
2015-08-05T00:02:49.681Z,6.82
2015-08-05T00:03:02.073Z,6.85
2015-08-05T00:03:14.479Z,6.9
2015-08-05T00:03:26.885Z,6.9
2015-08-05T00:03:39.292Z,6.82
2015-08-05T00:03:51.682Z,6.83
2015-08-05T00:04:04.091Z,6.86
2015-08-05T00:04:16.512Z,6.86
2015-08-05T00:04:28.919Z,6.88
2015-08-05T00:04:41.325Z,6.86
2015-08-05T00:04:53.731Z,6.8
2015-08-05T00:05:06.139Z,6.79
2015-08-05T00:05:18.546Z,6.88
2015-08-05T00:05:30.905Z,6.79
2015-08-05T00:05:43.296Z,6.86
2015-08-05T00:05:55.671Z,6.85
2015-08-05T00:06:08.048Z,6.86
2015-08-05T00:06:20.423Z,6.86
2015-08-05T00:06:32.782Z,6.85
2015-08-05T00:06:45.157Z,6.83
2015-08-05T00:06:57.548Z,6.79
2015-08-05T00:07:09.909Z,6.8
2015-08-05T00:07:22.284Z,6.79
2015-08-05T00:07:34.659Z,6.85
2015-08-05T00:07:47.034Z,6.82
2015-08-05T00:07:59.409Z,6.78
2015-08-05T00:08:11.786Z,6.83
2015-08-05T00:08:24.177Z,6.83
2015-08-05T00:08:36.552Z,6.82
2015-08-05T00:08:48.927Z,6.85
2015-08-05T00:09:01.302Z,6.82
2015-08-05T00:09:13.663Z,6.85
2015-08-05T00:09:26.038Z,6.83
2015-08-05T00:09:38.413Z,6.85
2015-08-05T00:09:50.804Z,6.83
2015-08-05T00:10:03.179Z,6.85
2015-08-05T00:10:15.556Z,6.85
2015-08-05T00:10:27.915Z,6.85
2015-08-05T00:10:40.290Z,6.76
2015-08-05T00:10:52.665Z,6.79
2015-08-05T00:11:05.040Z,6.83
2015-08-05T00:11:16.730Z,6.75
2015-08-05T00:11:29.120Z,6.79
2015-08-05T00:11:41.339Z,6.78
2015-08-05T00:11:53.730Z,6.75
2015-08-05T00:12:06.120Z,6.7
2015-08-05T00:12:18.513Z,6.73
2015-08-05T00:12:30.919Z,6.76
2015-08-05T00:12:43.341Z,6.82
2015-08-05T00:12:55.747Z,6.76
2015-08-05T00:13:08.153Z,6.78
2015-08-05T00:13:20.546Z,6.76
2015-08-05T00:13:32.952Z,6.78
2015-08-05T00:13:45.359Z,6.82
2015-08-05T00:13:57.780Z,6.83
2015-08-05T00:14:10.187Z,6.72
2015-08-05T00:14:22.579Z,6.76
2015-08-05T00:14:35.017Z,6.73
2015-08-05T00:14:47.439Z,6.72
2015-08-05T00:14:59.814Z,6.75
2015-08-05T00:15:12.173Z,6.73
2015-08-05T00:15:24.550Z,6.75
2015-08-05T00:15:36.925Z,6.72
2015-08-05T00:15:49.300Z,6.73
2015-08-05T00:16:01.675Z,6.7
2015-08-05T00:16:14.050Z,6.72
2015-08-05T00:16:26.427Z,6.67
2015-08-05T00:16:38.802Z,6.65
2015-08-05T00:16:51.177Z,6.62
2015-08-05T00:17:03.568Z,6.73
2015-08-05T00:17:15.927Z,6.67
2015-08-05T00:17:28.304Z,6.67
2015-08-05T00:17:40.679Z,6.68
2015-08-05T00:17:53.054Z,6.67
2015-08-05T00:18:05.445Z,6.62
2015-08-05T00:18:17.835Z,6.64
2015-08-05T00:18:30.211Z,6.67
2015-08-05T00:18:42.586Z,6.67
2015-08-05T00:18:54.961Z,6.61
2015-08-05T00:19:07.336Z,6.67
2015-08-05T00:19:19.711Z,6.67
2015-08-05T00:19:32.088Z,6.65
2015-08-05T00:19:44.463Z,6.6
2015-08-05T00:19:56.838Z,6.58
2015-08-05T00:20:09.213Z,6.61
2015-08-05T00:20:21.573Z,6.67
2015-08-05T00:20:33.965Z,6.67
2015-08-05T00:20:46.340Z,6.67
2015-08-05T00:20:58.731Z,6.67
2015-08-05T00:21:11.122Z,6.62
2015-08-05T00:21:23.497Z,6.64
2015-08-05T00:21:35.718Z,6.67
2015-08-05T00:21:48.109Z,6.65
2015-08-05T00:22:00.515Z,6.6
2015-08-05T00:22:12.921Z,6.64
2015-08-05T00:22:25.328Z,6.61
2015-08-05T00:22:37.719Z,6.54
2015-08-05T00:22:50.141Z,6.6
2015-08-05T00:23:02.547Z,6.55
2015-08-05T00:23:14.969Z,6.62
2015-08-05T00:23:27.376Z,6.65
2015-08-05T00:23:39.799Z,6.65
2015-08-05T00:23:52.206Z,6.52
2015-08-05T00:24:04.596Z,6.65
2015-08-05T00:24:17.034Z,6.54
2015-08-05T00:24:29.409Z,6.6
2015-08-05T00:24:41.787Z,6.62
2015-08-05T00:24:54.162Z,6.61
2015-08-05T00:25:06.537Z,6.6
2015-08-05T00:25:18.193Z,6.49
2015-08-05T00:25:30.568Z,6.52
2015-08-05T00:25:42.789Z,6.58
2015-08-05T00:25:55.164Z,6.52
2015-08-05T00:26:07.539Z,6.58
2015-08-05T00:26:19.914Z,6.55
2015-08-05T00:26:32.289Z,6.55
2015-08-05T00:26:44.666Z,6.47
2015-08-05T00:26:57.056Z,6.52
2015-08-05T00:27:09.431Z,6.55
2015-08-05T00:27:21.806Z,6.58
2015-08-05T00:27:34.181Z,6.47
2015-08-05T00:27:46.558Z,6.52
2015-08-05T00:27:58.933Z,6.57
2015-08-05T00:28:11.308Z,6.55
2015-08-05T00:28:23.668Z,6.6
2015-08-05T00:28:36.043Z,6.52
2015-08-05T00:28:48.435Z,6.54
2015-08-05T00:29:00.795Z,6.54
2015-08-05T00:29:12.467Z,6.55
2015-08-05T00:29:24.842Z,6.52
2015-08-05T00:29:37.217Z,6.58
2015-08-05T00:29:49.594Z,6.55
2015-08-05T00:30:01.953Z,6.55
2015-08-05T00:30:14.344Z,6.61
2015-08-05T00:30:26.719Z,6.47
2015-08-05T00:30:39.109Z,6.57
2015-08-05T00:30:51.485Z,6.55
2015-08-05T00:31:03.876Z,6.61
2015-08-05T00:31:16.251Z,6.57
2015-08-05T00:31:28.657Z,6.57
2015-08-05T00:31:41.079Z,6.54
2015-08-05T00:31:53.487Z,6.6
2015-08-05T00:32:05.878Z,6.62
2015-08-05T00:32:18.284Z,6.61
2015-08-05T00:32:30.690Z,6.54
2015-08-05T00:32:43.097Z,6.57
2015-08-05T00:32:55.489Z,6.6
2015-08-05T00:33:07.911Z,6.6
2015-08-05T00:33:20.302Z,6.61
2015-08-05T00:33:32.708Z,6.55
2015-08-05T00:33:45.130Z,6.57
2015-08-05T00:33:57.492Z,6.6
2015-08-05T00:34:09.867Z,6.6
2015-08-05T00:34:22.242Z,6.55
2015-08-05T00:34:34.617Z,6.51
2015-08-05T00:34:46.992Z,6.6
2015-08-05T00:34:59.368Z,6.52
2015-08-05T00:35:11.743Z,6.61
2015-08-05T00:35:24.118Z,6.57
2015-08-05T00:35:36.493Z,6.58
2015-08-05T00:35:48.868Z,6.54
2015-08-05T00:36:01.245Z,6.51
2015-08-05T00:36:13.620Z,6.55
2015-08-05T00:36:25.995Z,6.51
2015-08-05T00:36:38.370Z,6.52
2015-08-05T00:36:50.761Z,6.54
2015-08-05T00:37:03.123Z,6.44
2015-08-05T00:37:15.498Z,6.52
2015-08-05T00:37:27.889Z,6.52
2015-08-05T00:37:40.264Z,6.51
2015-08-05T00:37:52.623Z,6.57
2015-08-05T00:38:05.000Z,6.46
2015-08-05T00:38:17.391Z,6.51
2015-08-05T00:38:29.782Z,6.52
2015-08-05T00:38:42.157Z,6.46
2015-08-05T00:38:54.516Z,6.55
2015-08-05T00:39:06.892Z,6.54
2015-08-05T00:39:19.267Z,6.55
2015-08-05T00:39:31.658Z,6.49
2015-08-05T00:39:44.048Z,6.49
2015-08-05T00:39:56.423Z,6.52
2015-08-05T00:40:08.817Z,6.52
2015-08-05T00:40:21.192Z,6.51
2015-08-05T00:40:33.582Z,6.55
2015-08-05T00:40:45.973Z,6.52
2015-08-05T00:40:58.379Z,6.55
2015-08-05T00:41:10.802Z,6.49
2015-08-05T00:41:23.193Z,6.55
2015-08-05T00:41:35.599Z,6.44
2015-08-05T00:41:48.005Z,6.47
2015-08-05T00:42:00.427Z,6.52
2015-08-05T00:42:12.835Z,6.58
2015-08-05T00:42:25.226Z,6.49
2015-08-05T00:42:37.648Z,6.55
2015-08-05T00:42:50.039Z,6.51
2015-08-05T00:43:02.476Z,6.52
2015-08-05T00:43:14.854Z,6.54
2015-08-05T00:43:27.229Z,6.52
2015-08-05T00:43:39.604Z,6.58
2015-08-05T00:43:51.979Z,6.52
2015-08-05T00:44:04.354Z,6.49
2015-08-05T00:44:16.731Z,6.49
2015-08-05T00:44:29.106Z,6.51
2015-08-05T00:44:41.481Z,6.47
2015-08-05T00:44:53.856Z,6.49
2015-08-05T00:45:06.231Z,6.52
2015-08-05T00:45:18.608Z,6.47
2015-08-05T00:45:30.983Z,6.49
2015-08-05T00:45:43.358Z,6.47
2015-08-05T00:45:55.733Z,6.54
2015-08-05T00:46:08.108Z,6.55
2015-08-05T00:46:20.515Z,6.54
2015-08-05T00:46:32.890Z,6.51
2015-08-05T00:46:45.265Z,6.47
2015-08-05T00:46:57.640Z,6.55
2015-08-05T00:47:10.031Z,6.52
2015-08-05T00:47:22.408Z,6.55
2015-08-05T00:47:34.799Z,6.47
2015-08-05T00:47:47.189Z,6.47
2015-08-05T00:47:59.580Z,6.47
2015-08-05T00:48:11.939Z,6.46
2015-08-05T00:48:24.316Z,6.49
2015-08-05T00:48:36.691Z,6.47
2015-08-05T00:48:49.066Z,6.49
2015-08-05T00:49:01.441Z,6.49
2015-08-05T00:49:13.832Z,6.51
2015-08-05T00:49:26.209Z,6.52
2015-08-05T00:49:38.599Z,6.52
2015-08-05T00:49:50.974Z,6.47
2015-08-05T00:50:03.365Z,6.44
2015-08-05T00:50:15.756Z,6.46
2015-08-05T00:50:28.164Z,6.51
2015-08-05T00:50:40.570Z,6.52
2015-08-05T00:50:52.961Z,6.51
2015-08-05T00:51:05.367Z,6.52
2015-08-05T00:51:17.773Z,6.47
2015-08-05T00:51:29.495Z,6.44
2015-08-05T00:51:41.886Z,6.47
2015-08-05T00:51:54.308Z,6.44
2015-08-05T00:52:06.714Z,6.47
2015-08-05T00:52:19.104Z,6.55
2015-08-05T00:52:31.512Z,6.49
2015-08-05T00:52:43.871Z,6.52
2015-08-05T00:52:56.246Z,6.58
2015-08-05T00:53:08.621Z,6.49
2015-08-05T00:53:20.996Z,6.57
2015-08-05T00:53:33.373Z,6.51
2015-08-05T00:53:45.748Z,6.55
2015-08-05T00:53:58.123Z,6.44
2015-08-05T00:54:10.498Z,6.54
2015-08-05T00:54:22.873Z,6.52
2015-08-05T00:54:35.250Z,6.55
2015-08-05T00:54:47.625Z,6.47
2015-08-05T00:55:00.000Z,6.55
2015-08-05T00:55:12.375Z,6.57
2015-08-05T00:55:24.750Z,6.55
2015-08-05T00:55:37.127Z,6.55
2015-08-05T00:55:49.502Z,6.6
2015-08-05T00:56:01.877Z,6.6
2015-08-05T00:56:14.252Z,6.54
2015-08-05T00:56:25.908Z,6.61
2015-08-05T00:56:38.285Z,6.62
2015-08-05T00:56:50.660Z,6.58
2015-08-05T00:57:03.051Z,6.58
2015-08-05T00:57:15.426Z,6.61
2015-08-05T00:57:27.817Z,6.54
2015-08-05T00:57:40.194Z,6.58
2015-08-05T00:57:52.569Z,6.6
2015-08-05T00:58:04.944Z,6.67
2015-08-05T00:58:17.319Z,6.58
2015-08-05T00:58:29.725Z,6.61
2015-08-05T00:58:42.102Z,6.64
2015-08-05T00:58:54.477Z,6.62
2015-08-05T00:59:06.867Z,6.65
2015-08-05T00:59:19.258Z,6.65
2015-08-05T00:59:31.633Z,6.68
2015-08-05T00:59:44.057Z,6.67
2015-08-05T00:59:56.479Z,6.61
2015-08-05T01:00:08.869Z,6.64
2015-08-05T01:00:21.260Z,6.64
2015-08-05T01:00:33.666Z,6.57
2015-08-05T01:00:46.089Z,6.58
2015-08-05T01:00:58.495Z,6.6
2015-08-05T01:01:10.886Z,6.6
2015-08-05T01:01:22.589Z,6.65
2015-08-05T01:01:34.995Z,6.6
2015-08-05T01:01:47.405Z,6.6
2015-08-05T01:01:59.811Z,6.62
2015-08-05T01:02:11.514Z,6.57
2015-08-05T01:02:23.889Z,6.61
2015-08-05T01:02:36.264Z,6.57
2015-08-05T01:02:48.500Z,6.72
2015-08-05T01:03:00.875Z,6.6
2015-08-05T01:03:13.235Z,6.6
2015-08-05T01:03:25.610Z,6.67
2015-08-05T01:03:37.985Z,6.65
2015-08-05T01:03:49.658Z,6.64
2015-08-05T01:04:02.048Z,6.67
2015-08-05T01:04:14.423Z,6.65
2015-08-05T01:04:26.814Z,6.68
2015-08-05T01:04:39.189Z,6.7
2015-08-05T01:04:51.567Z,6.67
2015-08-05T01:05:03.958Z,6.73
2015-08-05T01:05:16.348Z,6.6
2015-08-05T01:05:28.708Z,6.61
2015-08-05T01:05:41.083Z,6.72
2015-08-05T01:05:53.491Z,6.6
2015-08-05T01:06:05.866Z,6.68
2015-08-05T01:06:18.241Z,6.67
2015-08-05T01:06:30.616Z,6.67
2015-08-05T01:06:43.006Z,6.72
2015-08-05T01:06:55.383Z,6.67
2015-08-05T01:07:07.758Z,6.7
2015-08-05T01:07:20.133Z,6.68
2015-08-05T01:07:32.493Z,6.64
2015-08-05T01:07:44.868Z,6.7
2015-08-05T01:07:57.260Z,6.67
2015-08-05T01:08:09.651Z,6.7
2015-08-05T01:08:22.026Z,6.68
2015-08-05T01:08:34.401Z,6.7
2015-08-05T01:08:46.792Z,6.64
2015-08-05T01:08:59.183Z,6.65
2015-08-05T01:09:11.574Z,6.67
2015-08-05T01:09:23.965Z,6.61
2015-08-05T01:09:36.386Z,6.67
2015-08-05T01:09:48.793Z,6.68
2015-08-05T01:10:00.482Z,6.68
2015-08-05T01:10:12.888Z,6.7
2015-08-05T01:10:25.279Z,6.61
2015-08-05T01:10:37.701Z,6.58
2015-08-05T01:10:50.107Z,6.6
2015-08-05T01:11:02.515Z,6.68
2015-08-05T01:11:14.922Z,6.6
2015-08-05T01:11:27.312Z,6.57
2015-08-05T01:11:39.734Z,6.58
2015-08-05T01:11:52.109Z,6.61
2015-08-05T01:12:04.486Z,6.58
2015-08-05T01:12:16.142Z,6.64
2015-08-05T01:12:28.517Z,6.57
2015-08-05T01:12:40.892Z,6.61
2015-08-05T01:12:53.267Z,6.61
2015-08-05T01:13:04.926Z,6.61
2015-08-05T01:13:17.316Z,6.64
2015-08-05T01:13:29.691Z,6.6
2015-08-05T01:13:42.066Z,6.51
2015-08-05T01:13:54.441Z,6.58
2015-08-05T01:14:06.818Z,6.62
2015-08-05T01:14:19.193Z,6.65
2015-08-05T01:14:31.568Z,6.6
2015-08-05T01:14:43.943Z,6.58
2015-08-05T01:14:56.334Z,6.62
2015-08-05T01:15:08.696Z,6.65
2015-08-05T01:15:21.087Z,6.57
2015-08-05T01:15:33.462Z,6.6
2015-08-05T01:15:45.837Z,6.58
2015-08-05T01:15:58.212Z,6.55
2015-08-05T01:16:10.604Z,6.57
2015-08-05T01:16:22.979Z,6.57
2015-08-05T01:16:35.354Z,6.57
2015-08-05T01:16:47.729Z,6.49
2015-08-05T01:17:00.104Z,6.58
2015-08-05T01:17:12.465Z,6.57
2015-08-05T01:17:24.856Z,6.58
2015-08-05T01:17:37.246Z,6.57
2015-08-05T01:17:49.637Z,6.6
2015-08-05T01:18:02.012Z,6.51
2015-08-05T01:18:14.404Z,6.49
2015-08-05T01:18:26.779Z,6.58
2015-08-05T01:18:39.170Z,6.55
2015-08-05T01:18:51.576Z,6.58
2015-08-05T01:19:03.983Z,6.49
2015-08-05T01:19:16.392Z,6.43
2015-08-05T01:19:28.782Z,6.55
2015-08-05T01:19:41.204Z,6.49
2015-08-05T01:19:53.611Z,6.52
2015-08-05T01:20:06.032Z,6.52
2015-08-05T01:20:18.424Z,6.57
2015-08-05T01:20:30.846Z,6.55
2015-08-05T01:20:43.237Z,6.46
2015-08-05T01:20:55.502Z,6.52
2015-08-05T01:21:07.908Z,6.46
2015-08-05T01:21:20.332Z,6.44
2015-08-05T01:21:32.707Z,6.44
2015-08-05T01:21:45.082Z,6.52
2015-08-05T01:21:57.457Z,6.57
2015-08-05T01:22:09.832Z,6.55
2015-08-05T01:22:22.209Z,6.52
2015-08-05T01:22:34.584Z,6.55
2015-08-05T01:22:46.959Z,6.52
2015-08-05T01:22:59.334Z,6.51
2015-08-05T01:23:11.709Z,6.49
2015-08-05T01:23:24.086Z,6.52
2015-08-05T01:23:36.461Z,6.52
2015-08-05T01:23:48.836Z,6.52
2015-08-05T01:24:01.211Z,6.44
2015-08-05T01:24:13.586Z,6.47
2015-08-05T01:24:25.979Z,6.51
2015-08-05T01:24:38.354Z,6.43
2015-08-05T01:24:50.745Z,6.44
2015-08-05T01:25:03.104Z,6.51
2015-08-05T01:25:15.479Z,6.44
2015-08-05T01:25:27.872Z,6.49
2015-08-05T01:25:40.247Z,6.51
2015-08-05T01:25:52.622Z,6.39
2015-08-05T01:26:05.012Z,6.42
2015-08-05T01:26:17.387Z,6.44
2015-08-05T01:26:29.764Z,6.43
2015-08-05T01:26:42.139Z,6.43
2015-08-05T01:26:54.514Z,6.46
2015-08-05T01:27:06.889Z,6.47
2015-08-05T01:27:19.264Z,6.44
2015-08-05T01:27:31.657Z,6.47
2015-08-05T01:27:44.047Z,6.43
2015-08-05T01:27:56.422Z,6.4
2015-08-05T01:28:08.813Z,6.46
2015-08-05T01:28:21.204Z,6.46
2015-08-05T01:28:33.613Z,6.47
2015-08-05T01:28:46.050Z,6.4
2015-08-05T01:28:58.441Z,6.47
2015-08-05T01:29:10.847Z,6.43
2015-08-05T01:29:23.254Z,6.55
2015-08-05T01:29:35.661Z,6.4
2015-08-05T01:29:48.067Z,6.46
2015-08-05T01:30:00.458Z,6.46
2015-08-05T01:30:12.895Z,6.34
2015-08-05T01:30:25.286Z,6.42
2015-08-05T01:30:37.695Z,6.43
2015-08-05T01:30:50.117Z,6.37
2015-08-05T01:31:02.492Z,6.39
2015-08-05T01:31:14.867Z,6.43
2015-08-05T01:31:27.242Z,6.46
2015-08-05T01:31:39.619Z,6.36
2015-08-05T01:31:51.994Z,6.34
2015-08-05T01:32:04.369Z,6.44
2015-08-05T01:32:16.744Z,6.39
2015-08-05T01:32:29.119Z,6.4
2015-08-05T01:32:41.495Z,6.42
2015-08-05T01:32:53.870Z,6.42
2015-08-05T01:33:05.542Z,6.36
2015-08-05T01:33:17.917Z,6.36
2015-08-05T01:33:30.292Z,6.36
2015-08-05T01:33:42.684Z,6.4
2015-08-05T01:33:55.059Z,6.36
2015-08-05T01:34:07.434Z,6.37
2015-08-05T01:34:19.809Z,6.42
2015-08-05T01:34:32.184Z,6.33
2015-08-05T01:34:44.578Z,6.36
2015-08-05T01:34:56.953Z,6.31
2015-08-05T01:35:09.328Z,6.34
2015-08-05T01:35:21.703Z,6.36
2015-08-05T01:35:34.094Z,6.28
2015-08-05T01:35:45.751Z,6.37
2015-08-05T01:35:58.126Z,6.4
2015-08-05T01:36:10.501Z,6.36
2015-08-05T01:36:22.892Z,6.37
2015-08-05T01:36:34.548Z,6.34
2015-08-05T01:36:46.925Z,6.37
2015-08-05T01:36:59.315Z,6.37
2015-08-05T01:37:11.706Z,6.26
2015-08-05T01:37:24.081Z,6.37
2015-08-05T01:37:36.456Z,6.39
2015-08-05T01:37:48.849Z,6.26
2015-08-05T01:38:01.239Z,6.4
2015-08-05T01:38:13.661Z,6.43
2015-08-05T01:38:26.067Z,6.33
2015-08-05T01:38:38.458Z,6.36
2015-08-05T01:38:50.866Z,6.37
2015-08-05T01:39:03.257Z,6.4
2015-08-05T01:39:15.679Z,6.39
2015-08-05T01:39:28.085Z,6.36
2015-08-05T01:39:40.507Z,6.42
2015-08-05T01:39:52.900Z,6.37
2015-08-05T01:40:05.306Z,6.33
2015-08-05T01:40:17.728Z,6.25
2015-08-05T01:40:30.103Z,6.34
2015-08-05T01:40:42.478Z,6.37
2015-08-05T01:40:54.855Z,6.28
2015-08-05T01:41:07.230Z,6.37
2015-08-05T01:41:19.605Z,6.42
2015-08-05T01:41:31.964Z,6.34
2015-08-05T01:41:44.339Z,6.39
2015-08-05T01:41:56.732Z,6.26
2015-08-05T01:42:09.107Z,6.37
2015-08-05T01:42:21.482Z,6.28
2015-08-05T01:42:33.857Z,6.39
2015-08-05T01:42:46.232Z,6.31
2015-08-05T01:42:58.609Z,6.28
2015-08-05T01:43:10.968Z,6.26
2015-08-05T01:43:23.359Z,6.28
2015-08-05T01:43:35.734Z,6.29
2015-08-05T01:43:48.109Z,6.4
2015-08-05T01:44:00.486Z,6.31
2015-08-05T01:44:12.861Z,6.26
2015-08-05T01:44:25.236Z,6.36
2015-08-05T01:44:37.611Z,6.28
2015-08-05T01:44:50.001Z,6.28
2015-08-05T01:45:01.660Z,6.39
2015-08-05T01:45:14.035Z,6.42
2015-08-05T01:45:26.410Z,6.34
2015-08-05T01:45:38.785Z,6.4
2015-08-05T01:45:51.160Z,6.36
2015-08-05T01:46:03.521Z,6.39
2015-08-05T01:46:15.912Z,6.37
2015-08-05T01:46:28.302Z,6.34
2015-08-05T01:46:40.693Z,6.36
2015-08-05T01:46:53.083Z,6.37
2015-08-05T01:47:05.460Z,6.33
2015-08-05T01:47:17.851Z,6.37
2015-08-05T01:47:30.257Z,6.43
2015-08-05T01:47:42.664Z,6.37
2015-08-05T01:47:55.070Z,6.29
2015-08-05T01:48:07.462Z,6.37
2015-08-05T01:48:19.869Z,6.34
2015-08-05T01:48:32.259Z,6.4
2015-08-05T01:48:44.666Z,6.36
2015-08-05T01:48:57.072Z,6.37
2015-08-05T01:49:09.480Z,6.36
2015-08-05T01:49:21.886Z,6.34
2015-08-05T01:49:34.308Z,6.36
2015-08-05T01:49:46.683Z,6.34
2015-08-05T01:49:59.058Z,6.36
2015-08-05T01:50:11.419Z,6.36
2015-08-05T01:50:23.794Z,6.4
2015-08-05T01:50:36.169Z,6.34
2015-08-05T01:50:48.544Z,6.37
2015-08-05T01:51:00.919Z,6.33
2015-08-05T01:51:13.311Z,6.39
2015-08-05T01:51:25.702Z,6.42
2015-08-05T01:51:38.077Z,6.28
2015-08-05T01:51:50.467Z,6.26
2015-08-05T01:52:02.842Z,6.29
2015-08-05T01:52:14.502Z,6.33
2015-08-05T01:52:26.877Z,6.37
2015-08-05T01:52:39.252Z,6.31
2015-08-05T01:52:51.642Z,6.31
2015-08-05T01:53:04.017Z,6.25
2015-08-05T01:53:16.378Z,6.4
2015-08-05T01:53:28.768Z,6.34
2015-08-05T01:53:41.143Z,6.26
2015-08-05T01:53:53.518Z,6.26
2015-08-05T01:54:05.893Z,6.28
2015-08-05T01:54:18.303Z,6.33
2015-08-05T01:54:30.678Z,6.34
2015-08-05T01:54:43.053Z,6.34
2015-08-05T01:54:55.428Z,6.39
2015-08-05T01:55:07.099Z,6.36
2015-08-05T01:55:19.475Z,6.33
2015-08-05T01:55:31.850Z,6.31
2015-08-05T01:55:44.241Z,6.29
2015-08-05T01:55:56.616Z,6.29
2015-08-05T01:56:09.007Z,6.39
2015-08-05T01:56:21.385Z,6.33
2015-08-05T01:56:33.760Z,6.34
2015-08-05T01:56:46.182Z,6.29
2015-08-05T01:56:58.588Z,6.4
2015-08-05T01:57:10.994Z,6.28
2015-08-05T01:57:23.401Z,6.33
2015-08-05T01:57:35.792Z,6.26
2015-08-05T01:57:48.214Z,6.36
2015-08-05T01:58:00.636Z,6.37
2015-08-05T01:58:13.026Z,6.39
2015-08-05T01:58:25.450Z,6.29
2015-08-05T01:58:37.856Z,6.28
2015-08-05T01:58:50.263Z,6.26
2015-08-05T01:59:02.685Z,6.25
2015-08-05T01:59:15.060Z,6.31
2015-08-05T01:59:27.437Z,6.34
2015-08-05T01:59:39.812Z,6.28
2015-08-05T01:59:52.187Z,6.28
2015-08-05T02:00:04.577Z,6.39
2015-08-05T02:00:16.952Z,6.37
2015-08-05T02:00:29.329Z,6.37
2015-08-05T02:00:41.704Z,6.28
2015-08-05T02:00:54.079Z,6.29
2015-08-05T02:01:06.454Z,6.42
2015-08-05T02:01:18.829Z,6.36
2015-08-05T02:01:31.206Z,6.39
2015-08-05T02:01:43.581Z,6.36
2015-08-05T02:01:55.956Z,6.4
2015-08-05T02:02:08.347Z,6.29
2015-08-05T02:02:20.722Z,6.25
2015-08-05T02:02:33.100Z,6.39
2015-08-05T02:02:45.459Z,6.28
2015-08-05T02:02:57.834Z,6.37
2015-08-05T02:03:10.209Z,6.39
2015-08-05T02:03:21.865Z,6.36
2015-08-05T02:03:34.241Z,6.39
2015-08-05T02:03:46.632Z,6.28
2015-08-05T02:03:59.007Z,6.39
2015-08-05T02:04:11.366Z,6.39
2015-08-05T02:04:23.741Z,6.4
2015-08-05T02:04:36.118Z,6.39
2015-08-05T02:04:48.493Z,6.43
2015-08-05T02:05:00.868Z,6.43
2015-08-05T02:05:13.259Z,6.4
2015-08-05T02:05:24.915Z,6.37
2015-08-05T02:05:37.309Z,6.43
2015-08-05T02:05:49.700Z,6.4
2015-08-05T02:06:02.075Z,6.34
2015-08-05T02:06:14.481Z,6.4
2015-08-05T02:06:26.871Z,6.29
2015-08-05T02:06:39.279Z,6.42
2015-08-05T02:06:51.685Z,6.42
2015-08-05T02:07:04.091Z,6.44
2015-08-05T02:07:16.497Z,6.4
2015-08-05T02:07:28.919Z,6.42
2015-08-05T02:07:40.610Z,6.43
2015-08-05T02:07:53.016Z,6.43
2015-08-05T02:08:05.422Z,6.4
2015-08-05T02:08:17.813Z,6.44
2015-08-05T02:08:29.516Z,6.47
2015-08-05T02:08:41.893Z,6.4
2015-08-05T02:08:54.252Z,6.51
2015-08-05T02:09:06.627Z,6.43
2015-08-05T02:09:19.002Z,6.4
2015-08-05T02:09:31.362Z,6.4
2015-08-05T02:09:43.738Z,6.4
2015-08-05T02:09:56.113Z,6.49
2015-08-05T02:10:08.503Z,6.4
2015-08-05T02:10:20.878Z,6.4
2015-08-05T02:10:33.253Z,6.43
2015-08-05T02:10:45.631Z,6.4
2015-08-05T02:10:58.022Z,6.47
2015-08-05T02:11:10.397Z,6.43
2015-08-05T02:11:22.756Z,6.43
2015-08-05T02:11:35.147Z,6.49
2015-08-05T02:11:47.524Z,6.4
2015-08-05T02:11:59.899Z,6.46
2015-08-05T02:12:12.258Z,6.44
2015-08-05T02:12:24.649Z,6.46
2015-08-05T02:12:37.024Z,6.46
2015-08-05T02:12:49.401Z,6.44
2015-08-05T02:13:01.792Z,6.49
2015-08-05T02:13:14.151Z,6.55
2015-08-05T02:13:26.526Z,6.4
2015-08-05T02:13:38.901Z,6.51
2015-08-05T02:13:51.278Z,6.52
2015-08-05T02:14:03.653Z,6.49
2015-08-05T02:14:16.028Z,6.55
2015-08-05T02:14:28.419Z,6.57
2015-08-05T02:14:40.809Z,6.47
2015-08-05T02:14:53.202Z,6.52
2015-08-05T02:15:05.577Z,6.52
2015-08-05T02:15:17.249Z,6.52
2015-08-05T02:15:29.639Z,6.46
2015-08-05T02:15:42.030Z,6.51
2015-08-05T02:15:54.453Z,6.55
2015-08-05T02:16:06.844Z,6.51
2015-08-05T02:16:19.250Z,6.43
2015-08-05T02:16:31.640Z,6.49
2015-08-05T02:16:44.062Z,6.47
2015-08-05T02:16:56.471Z,6.47
2015-08-05T02:17:08.892Z,6.51
2015-08-05T02:17:21.283Z,6.47
2015-08-05T02:17:33.689Z,6.51
2015-08-05T02:17:46.096Z,6.51
2015-08-05T02:17:58.536Z,6.52
2015-08-05T02:18:10.911Z,6.57
2015-08-05T02:18:23.286Z,6.47
2015-08-05T02:18:35.645Z,6.49
2015-08-05T02:18:48.036Z,6.49
2015-08-05T02:19:00.397Z,6.52
2015-08-05T02:19:12.772Z,6.54
2015-08-05T02:19:24.444Z,6.47
2015-08-05T02:19:36.835Z,6.55
2015-08-05T02:19:49.210Z,6.46
2015-08-05T02:20:01.570Z,6.55
2015-08-05T02:20:13.945Z,6.44
2015-08-05T02:20:26.305Z,6.57
2015-08-05T02:20:38.680Z,6.46
2015-08-05T02:20:51.055Z,6.55
2015-08-05T02:21:03.447Z,6.57
2015-08-05T02:21:15.822Z,6.58
2015-08-05T02:21:28.197Z,6.7
2015-08-05T02:21:40.572Z,6.55
2015-08-05T02:21:52.932Z,6.54
2015-08-05T02:22:05.309Z,6.61
2015-08-05T02:22:16.981Z,6.57
2015-08-05T02:22:29.356Z,6.58
2015-08-05T02:22:41.762Z,6.57
2015-08-05T02:22:54.137Z,6.65
2015-08-05T02:23:06.514Z,6.54
2015-08-05T02:23:18.889Z,6.6
2015-08-05T02:23:31.264Z,6.64
2015-08-05T02:23:43.623Z,6.64
2015-08-05T02:23:56.029Z,6.58
2015-08-05T02:24:08.406Z,6.6
2015-08-05T02:24:20.781Z,6.6
2015-08-05T02:24:33.156Z,6.65
2015-08-05T02:24:45.547Z,6.6
2015-08-05T02:24:57.922Z,6.58
2015-08-05T02:25:10.330Z,6.61
2015-08-05T02:25:22.737Z,6.64
2015-08-05T02:25:34.987Z,6.64
2015-08-05T02:25:47.393Z,6.6
2015-08-05T02:25:59.783Z,6.68
2015-08-05T02:26:12.207Z,6.65
2015-08-05T02:26:24.614Z,6.65
2015-08-05T02:26:37.004Z,6.67
2015-08-05T02:26:49.426Z,6.7
2015-08-05T02:27:01.114Z,6.62
2015-08-05T02:27:13.553Z,6.7
2015-08-05T02:27:25.944Z,6.62
2015-08-05T02:27:38.319Z,6.57
2015-08-05T02:27:50.725Z,6.68
2015-08-05T02:28:03.100Z,6.62
2015-08-05T02:28:15.477Z,6.64
2015-08-05T02:28:27.852Z,6.7
2015-08-05T02:28:40.211Z,6.64
2015-08-05T02:28:52.602Z,6.68
2015-08-05T02:29:04.977Z,6.75
2015-08-05T02:29:17.354Z,6.67
2015-08-05T02:29:29.729Z,6.68
2015-08-05T02:29:42.104Z,6.58
2015-08-05T02:29:54.479Z,6.6
2015-08-05T02:30:06.838Z,6.62
2015-08-05T02:30:19.231Z,6.58
2015-08-05T02:30:31.606Z,6.57
2015-08-05T02:30:43.997Z,6.52
2015-08-05T02:30:56.372Z,6.65
2015-08-05T02:31:08.747Z,6.58
2015-08-05T02:31:21.108Z,6.62
2015-08-05T02:31:33.483Z,6.64
2015-08-05T02:31:45.874Z,6.55
2015-08-05T02:31:58.249Z,6.61
2015-08-05T02:32:10.639Z,6.58
2015-08-05T02:32:23.000Z,6.64
2015-08-05T02:32:35.375Z,6.62
2015-08-05T02:32:47.750Z,6.6
2015-08-05T02:33:00.125Z,6.65
2015-08-05T02:33:12.500Z,6.58
2015-08-05T02:33:24.892Z,6.61
2015-08-05T02:33:36.564Z,6.62
2015-08-05T02:33:48.939Z,6.55
2015-08-05T02:34:01.330Z,6.62
2015-08-05T02:34:13.705Z,6.67
2015-08-05T02:34:26.097Z,6.64
2015-08-05T02:34:38.504Z,6.68
2015-08-05T02:34:50.925Z,6.58
2015-08-05T02:35:03.316Z,6.67
2015-08-05T02:35:15.707Z,6.58
2015-08-05T02:35:28.116Z,6.65
2015-08-05T02:35:40.538Z,6.65
2015-08-05T02:35:52.772Z,6.67
2015-08-05T02:36:05.194Z,6.6
2015-08-05T02:36:17.585Z,6.62
2015-08-05T02:36:30.009Z,6.68
2015-08-05T02:36:42.430Z,6.57
2015-08-05T02:36:54.837Z,6.55
2015-08-05T02:37:07.196Z,6.55
2015-08-05T02:37:19.571Z,6.58
2015-08-05T02:37:31.948Z,6.61
2015-08-05T02:37:44.307Z,6.61
2015-08-05T02:37:56.682Z,6.67
2015-08-05T02:38:09.042Z,6.57
2015-08-05T02:38:21.417Z,6.58
2015-08-05T02:38:33.793Z,6.58
2015-08-05T02:38:46.168Z,6.57
2015-08-05T02:38:58.543Z,6.54
2015-08-05T02:39:10.902Z,6.6
2015-08-05T02:39:23.277Z,6.6
2015-08-05T02:39:35.654Z,6.55
2015-08-05T02:39:48.029Z,6.62
2015-08-05T02:39:59.717Z,6.57
2015-08-05T02:40:12.092Z,6.51
2015-08-05T02:40:24.467Z,6.57
2015-08-05T02:40:36.829Z,6.49
2015-08-05T02:40:49.204Z,6.54
2015-08-05T02:41:01.579Z,6.58
2015-08-05T02:41:13.938Z,6.55
2015-08-05T02:41:26.329Z,6.6
2015-08-05T02:41:37.986Z,6.58
2015-08-05T02:41:50.361Z,6.51
2015-08-05T02:42:02.736Z,6.52
2015-08-05T02:42:15.096Z,6.46
2015-08-05T02:42:27.471Z,6.51
2015-08-05T02:42:39.849Z,6.49
2015-08-05T02:42:52.239Z,6.52
2015-08-05T02:43:04.458Z,6.43
2015-08-05T02:43:16.849Z,6.52
2015-08-05T02:43:29.239Z,6.49
2015-08-05T02:43:41.631Z,6.52
2015-08-05T02:43:54.037Z,6.43
2015-08-05T02:44:06.443Z,6.51
2015-08-05T02:44:18.850Z,6.55
2015-08-05T02:44:31.256Z,6.52
2015-08-05T02:44:43.492Z,6.49
2015-08-05T02:44:55.899Z,6.58
2015-08-05T02:45:08.305Z,6.49